Главная страница
METAR-TAF:

METAR-TAF

Аэропорты :

Яп

Острова Яп, Микронезия

широта: 09-29N, долгота: 138-05E, высота над уровнем моря: 28 м

Текущие метеонаблюдения

Эта сводка был подготовлена 11 минут назад, в 10:54 UTC
Ветер 7 Узел от западный
Температура 28°C
Влажность 84%
Давление 1009 hPa
Видимость: 17.7 км
Отдельные облака на высоте 1600 фута, мощно-кучевые.
Рассеянная облачность на высоте 13000 фута
Сплошная облачность на высоте 30000 фута
небольшие ливневые дожди

METAR: PTYA 241054Z 26007KT 11SM -SHRA SCT016TCU BKN130 OVC300 28/25 A2979 RMK SHRAB45 TCU W-N-E SLP088 T02790246

Время: 21:05 (11:05 UTC)

Прогноз

Эта сводка был подготовлена 5 часа и 32 минут назад, в 05:33 UTC
Прогноз действительный с 24-го 06 UTC до 25-го 06 UTC
Ветер 10 Узел от западный-юго-западный
Видимость: 10 км
Отдельные облака на высоте 1800 фута
Рассеянная облачность на высоте 13000 фута
ливни в окрестностях

TAF: PTYA 240533Z 2406/2506 24010KT P6SM VCSH SCT018 BKN130

Метеонаблюдения и прогнозы для более 4000 аэропортов (сводки METAR и TAF).

Имеющиеся станции представлены на карте желтыми и красными точками.

Чтобы увидеть название станции, наведите на нее мышь.

Затем щелкните, чтобы увидеть метеонаблюдения и метеопрогнозы.

Управление картой: чтобы увеличить масштаб, щелкните зеленые кнопки с черным крестиком; чтобы уменьшить масштаб, щелкните зеленую кнопку с тире; для просмотра соседних карт щелкайте зеленые стрелки.


METAR-TAF: